createdAt,value
2019-02-25T00:01:20.009Z,6.71
2019-02-25T00:03:47.478Z,6.61
2019-02-25T00:06:14.869Z,6.37
2019-02-25T00:08:42.266Z,6.19
2019-02-25T00:11:09.794Z,6.15
2019-02-25T00:13:37.208Z,6.17
2019-02-25T00:16:04.790Z,6.29
2019-02-25T00:18:32.191Z,6.20
2019-02-25T00:20:59.662Z,6.29
2019-02-25T00:23:27.074Z,6.29
2019-02-25T00:25:54.483Z,6.39
2019-02-25T00:28:21.874Z,6.32
2019-02-25T00:30:49.316Z,6.34
2019-02-25T00:33:16.800Z,6.36
2019-02-25T00:35:44.188Z,6.22
2019-02-25T00:38:11.617Z,6.10
2019-02-25T00:40:39.020Z,6.10
2019-02-25T00:43:06.424Z,6.05
2019-02-25T00:45:33.990Z,6.20
2019-02-25T00:48:01.643Z,6.32
2019-02-25T00:50:29.047Z,6.34
2019-02-25T00:52:56.452Z,6.39
2019-02-25T00:55:23.861Z,6.45
2019-02-25T00:57:51.270Z,6.46
2019-02-25T01:00:18.671Z,6.34
2019-02-25T01:02:46.067Z,6.20
2019-02-25T01:05:13.484Z,6.22
2019-02-25T01:07:40.897Z,6.08
2019-02-25T01:10:09.131Z,5.87
2019-02-25T01:12:36.563Z,5.78
2019-02-25T01:15:03.968Z,5.83
2019-02-25T01:17:31.381Z,5.90
2019-02-25T01:19:58.786Z,6.00
2019-02-25T01:22:26.363Z,5.97
2019-02-25T01:24:53.813Z,5.99
2019-02-25T01:27:21.217Z,6.09
2019-02-25T01:29:48.628Z,6.11
2019-02-25T01:32:16.042Z,6.09
2019-02-25T01:34:43.439Z,6.18
2019-02-25T01:37:11.115Z,6.19
2019-02-25T01:39:38.632Z,6.14
2019-02-25T01:42:06.170Z,5.90
2019-02-25T01:44:33.558Z,5.75
2019-02-25T01:47:00.973Z,5.77
2019-02-25T01:49:28.387Z,5.92
2019-02-25T01:51:55.792Z,5.86
2019-02-25T01:54:23.695Z,5.70
2019-02-25T01:56:51.132Z,5.54
2019-02-25T01:59:18.543Z,5.60
2019-02-25T02:01:45.935Z,5.69
2019-02-25T02:04:13.340Z,5.59
2019-02-25T02:06:40.735Z,5.49
2019-02-25T02:09:08.142Z,5.50
2019-02-25T02:11:36.257Z,5.68
2019-02-25T02:14:03.646Z,5.82
2019-02-25T02:16:31.053Z,5.74
2019-02-25T02:18:58.463Z,5.65
2019-02-25T02:21:25.862Z,5.59
2019-02-25T02:23:53.283Z,5.51
2019-02-25T02:26:21.183Z,5.56
2019-02-25T02:28:48.336Z,5.43
2019-02-25T02:31:15.733Z,5.23
2019-02-25T02:33:43.158Z,5.27
2019-02-25T02:36:11.703Z,5.26
2019-02-25T02:38:38.357Z,5.23
2019-02-25T02:41:05.754Z,5.23
2019-02-25T02:43:33.284Z,5.22
2019-02-25T02:46:13.722Z,5.23
2019-02-25T02:48:41.779Z,5.13
2019-02-25T02:51:09.175Z,5.00
2019-02-25T02:53:36.578Z,4.97
2019-02-25T02:56:04.026Z,5.03
2019-02-25T02:58:31.512Z,5.18
2019-02-25T03:00:58.958Z,5.33
2019-02-25T03:03:26.461Z,5.42
2019-02-25T03:05:53.843Z,5.29
2019-02-25T03:08:21.264Z,5.23
2019-02-25T03:10:48.645Z,5.19
2019-02-25T03:13:16.051Z,5.41
2019-02-25T03:15:43.453Z,5.62
2019-02-25T03:18:10.886Z,5.74
2019-02-25T03:20:38.274Z,5.76
2019-02-25T03:23:05.904Z,5.82
2019-02-25T03:25:33.362Z,5.67
2019-02-25T03:28:01.075Z,5.55
2019-02-25T03:30:28.578Z,5.43
2019-02-25T03:32:55.968Z,5.35
2019-02-25T03:35:23.376Z,5.25
2019-02-25T03:37:50.774Z,5.19
2019-02-25T03:40:21.116Z,5.03
2019-02-25T03:42:48.526Z,5.07
2019-02-25T03:45:15.934Z,5.02
2019-02-25T03:47:43.355Z,4.99
2019-02-25T03:50:10.799Z,4.96
2019-02-25T03:52:38.245Z,5.10
2019-02-25T03:55:05.655Z,5.14
2019-02-25T03:57:33.142Z,5.17
2019-02-25T04:00:00.572Z,5.05
2019-02-25T04:02:27.958Z,4.98
2019-02-25T04:04:55.442Z,5.06
2019-02-25T04:07:22.900Z,4.94
2019-02-25T04:09:50.280Z,4.94
2019-02-25T04:12:17.699Z,4.99
2019-02-25T04:14:45.091Z,4.97
2019-02-25T04:17:12.627Z,4.92
2019-02-25T04:19:40.031Z,4.78
2019-02-25T04:22:07.488Z,4.73
2019-02-25T04:24:34.862Z,4.71
2019-02-25T04:27:02.458Z,4.76
2019-02-25T04:29:29.910Z,4.89
2019-02-25T04:31:58.037Z,4.71
2019-02-25T04:34:25.442Z,4.39
2019-02-25T04:36:53.160Z,4.19
2019-02-25T04:39:20.560Z,4.21
2019-02-25T04:41:48.135Z,4.32
2019-02-25T04:44:15.696Z,4.48
2019-02-25T04:46:43.371Z,4.63
2019-02-25T04:49:10.828Z,4.74
2019-02-25T04:51:38.317Z,4.81
2019-02-25T04:54:05.875Z,4.93
2019-02-25T04:56:33.402Z,5.00
2019-02-25T04:59:00.834Z,4.96
2019-02-25T05:01:28.237Z,4.99
2019-02-25T05:03:56.166Z,4.96
2019-02-25T05:06:23.677Z,4.98
2019-02-25T05:08:51.303Z,4.92
2019-02-25T05:11:19.070Z,4.83
2019-02-25T05:13:46.759Z,4.71
2019-02-25T05:16:14.216Z,4.55
2019-02-25T05:18:41.807Z,4.49
2019-02-25T05:21:10.092Z,4.50
2019-02-25T05:23:37.780Z,4.45
2019-02-25T05:26:05.354Z,4.45
2019-02-25T05:28:32.781Z,4.37
2019-02-25T05:31:00.179Z,4.36
2019-02-25T05:33:27.575Z,4.39
2019-02-25T05:35:54.986Z,4.48
2019-02-25T05:38:22.375Z,4.41
2019-02-25T05:40:49.855Z,4.47
2019-02-25T05:43:17.324Z,4.57
2019-02-25T05:45:44.712Z,4.66
2019-02-25T05:48:12.123Z,4.71
2019-02-25T05:50:39.692Z,4.69
2019-02-25T05:53:07.090Z,4.78
2019-02-25T05:55:34.494Z,4.85
2019-02-25T05:58:01.883Z,4.97
2019-02-25T06:00:31.913Z,4.86
2019-02-25T06:02:59.395Z,4.63
2019-02-25T06:05:26.901Z,4.56
2019-02-25T06:07:54.349Z,4.49
2019-02-25T06:10:21.737Z,4.38
2019-02-25T06:12:49.254Z,4.36
2019-02-25T06:15:17.589Z,4.33
2019-02-25T06:17:44.956Z,4.26
2019-02-25T06:20:13.629Z,4.14
2019-02-25T06:22:41.041Z,4.17
2019-02-25T06:25:08.457Z,4.20
2019-02-25T06:27:35.857Z,4.12
2019-02-25T06:30:03.318Z,4.13
2019-02-25T06:32:30.702Z,4.24
2019-02-25T06:34:58.280Z,4.27
2019-02-25T06:37:25.683Z,4.31
2019-02-25T06:39:53.139Z,4.41
2019-02-25T06:42:20.529Z,4.61
2019-02-25T06:44:48.055Z,4.80
2019-02-25T06:47:15.871Z,4.94
2019-02-25T06:49:43.361Z,5.05
2019-02-25T06:52:11.160Z,5.26
2019-02-25T06:54:38.603Z,5.51
2019-02-25T06:57:06.032Z,5.69
2019-02-25T06:59:33.494Z,5.67
2019-02-25T07:02:00.935Z,5.79
2019-02-25T07:04:28.741Z,5.92
2019-02-25T07:06:59.476Z,5.85
2019-02-25T07:09:29.292Z,5.87
2019-02-25T07:12:12.616Z,5.99
2019-02-25T07:14:40.822Z,6.15
2019-02-25T07:17:24.019Z,6.07
2019-02-25T07:23:01.108Z,6.64
2019-02-25T07:25:32.362Z,6.64
2019-02-25T07:28:05.161Z,6.76
2019-02-25T07:30:52.377Z,6.87
2019-02-25T07:33:20.139Z,7.10
2019-02-25T07:35:50.645Z,7.27
2019-02-25T07:38:21.650Z,7.45
2019-02-25T07:41:04.043Z,7.55
2019-02-25T07:43:31.924Z,7.59
2019-02-25T07:45:59.324Z,7.67
2019-02-25T07:48:28.111Z,7.78
2019-02-25T07:51:05.502Z,7.89
2019-02-25T07:53:32.922Z,7.76
2019-02-25T07:58:59.015Z,8.22
2019-02-25T08:01:28.519Z,8.12
2019-02-25T08:06:55.458Z,8.41
2019-02-25T08:09:38.708Z,8.39
2019-02-25T08:12:08.710Z,8.46
2019-02-25T08:14:41.732Z,8.70
2019-02-25T08:17:09.242Z,8.98
2019-02-25T08:19:36.654Z,9.00
2019-02-25T08:22:16.783Z,9.01
2019-02-25T08:24:48.775Z,9.10
2019-02-25T08:27:17.698Z,9.17
2019-02-25T08:29:47.981Z,9.09
2019-02-25T08:32:17.635Z,9.12
2019-02-25T08:35:04.285Z,9.36
2019-02-25T08:37:37.794Z,9.45
2019-02-25T08:40:05.466Z,9.60
2019-02-25T08:42:43.828Z,9.79
2019-02-25T08:45:11.486Z,10.10
2019-02-25T08:47:53.444Z,10.27
2019-02-25T08:50:20.386Z,10.20
2019-02-25T08:52:47.589Z,10.08
2019-02-25T08:55:14.609Z,10.11
2019-02-25T08:57:41.502Z,10.23
2019-02-25T09:00:08.471Z,10.22
2019-02-25T09:02:35.483Z,10.47
2019-02-25T09:05:02.450Z,10.68
2019-02-25T09:07:29.386Z,10.61
2019-02-25T09:09:56.408Z,10.74
2019-02-25T09:12:23.361Z,10.90
2019-02-25T09:14:50.327Z,11.07
2019-02-25T09:17:17.404Z,11.15
2019-02-25T09:19:44.371Z,11.28
2019-02-25T09:22:11.393Z,11.40
2019-02-25T09:24:38.566Z,11.53
2019-02-25T09:27:05.469Z,11.59
2019-02-25T09:29:32.611Z,11.67
2019-02-25T09:31:59.554Z,11.79
2019-02-25T09:34:26.517Z,12.03
2019-02-25T09:36:53.469Z,12.20
2019-02-25T09:39:20.499Z,12.34
2019-02-25T09:41:47.928Z,12.53
2019-02-25T09:44:15.350Z,12.62
2019-02-25T09:46:42.734Z,12.65
2019-02-25T09:49:10.232Z,12.70
2019-02-25T09:51:37.910Z,12.78
2019-02-25T09:54:05.302Z,12.88
2019-02-25T09:56:32.792Z,12.90
2019-02-25T09:59:00.203Z,12.75
2019-02-25T10:01:27.655Z,12.39
2019-02-25T10:03:55.051Z,12.25
2019-02-25T10:06:22.536Z,12.35
2019-02-25T10:08:49.494Z,12.47
2019-02-25T10:11:16.471Z,12.85
2019-02-25T10:13:43.640Z,13.22
2019-02-25T10:16:10.575Z,13.40
2019-02-25T10:18:38.004Z,13.56
2019-02-25T10:21:05.418Z,13.80
2019-02-25T10:23:32.903Z,13.94
2019-02-25T10:26:00.341Z,14.22
2019-02-25T10:28:27.816Z,14.36
2019-02-25T10:30:55.396Z,14.55
2019-02-25T10:33:22.780Z,14.71
2019-02-25T10:35:50.274Z,14.98
2019-02-25T10:38:19.406Z,15.20
2019-02-25T10:40:45.871Z,15.48
2019-02-25T10:43:12.542Z,15.75
2019-02-25T10:45:41.234Z,15.78
2019-02-25T10:48:07.564Z,15.99
2019-02-25T10:50:36.031Z,16.02
2019-02-25T10:53:03.716Z,16.30
2019-02-25T10:58:22.268Z,16.84
2019-02-25T11:00:49.858Z,17.00
2019-02-25T11:03:17.854Z,16.49
2019-02-25T11:05:44.782Z,15.94
2019-02-25T11:08:13.870Z,15.58
2019-02-25T11:10:44.138Z,16.06
2019-02-25T11:13:10.543Z,16.95
2019-02-25T11:15:40.228Z,17.54
2019-02-25T11:18:05.780Z,18.11
2019-02-25T11:20:35.079Z,18.61
2019-02-25T11:23:00.706Z,18.91
2019-02-25T11:25:30.107Z,19.14
2019-02-25T11:27:55.587Z,19.20
2019-02-25T11:30:23.891Z,18.84
2019-02-25T11:32:52.887Z,19.15
2019-02-25T11:35:18.130Z,19.82
2019-02-25T11:37:45.613Z,19.71
2019-02-25T11:40:13.031Z,20.09
2019-02-25T11:42:40.503Z,19.91
2019-02-25T11:45:09.895Z,19.30
2019-02-25T11:47:37.374Z,19.14
2019-02-25T11:50:04.793Z,19.61
2019-02-25T11:52:32.190Z,20.07
2019-02-25T11:54:59.622Z,21.08
2019-02-25T11:57:27.071Z,21.97
2019-02-25T11:59:54.097Z,22.72
2019-02-25T12:02:25.661Z,23.17
2019-02-25T12:04:48.539Z,23.36
2019-02-25T12:07:15.514Z,23.72
2019-02-25T12:09:42.499Z,24.00
2019-02-25T12:12:09.494Z,24.33
2019-02-25T12:14:36.473Z,24.68
2019-02-25T12:17:03.880Z,25.06
2019-02-25T12:19:31.492Z,25.28
2019-02-25T12:21:58.935Z,25.52
2019-02-25T12:24:26.661Z,25.59
2019-02-25T12:26:54.131Z,25.80
2019-02-25T12:29:21.556Z,25.88
2019-02-25T12:31:48.992Z,25.85
2019-02-25T12:34:16.414Z,26.12
2019-02-25T12:36:44.562Z,26.22
2019-02-25T12:39:11.594Z,26.24
2019-02-25T12:41:38.578Z,26.39
2019-02-25T12:44:05.673Z,26.54
2019-02-25T12:46:32.621Z,26.85
2019-02-25T12:48:59.768Z,26.91
2019-02-25T12:51:26.768Z,27.06
2019-02-25T12:53:53.819Z,26.94
2019-02-25T12:56:20.944Z,27.07
2019-02-25T12:58:47.882Z,27.32
2019-02-25T13:01:15.049Z,27.47
2019-02-25T13:03:42.049Z,27.64
2019-02-25T13:06:08.969Z,27.88
2019-02-25T13:08:36.055Z,27.99
2019-02-25T13:11:03.003Z,28.05
2019-02-25T13:13:30.690Z,28.18
2019-02-25T13:15:57.678Z,28.19
2019-02-25T13:18:25.304Z,28.26
2019-02-25T13:20:52.732Z,28.11
2019-02-25T13:23:19.767Z,28.21
2019-02-25T13:25:47.974Z,27.78
2019-02-25T13:28:15.420Z,27.78
2019-02-25T13:30:42.851Z,27.39
2019-02-25T13:33:09.802Z,26.78
2019-02-25T13:35:36.886Z,26.22
2019-02-25T13:38:03.933Z,26.23
2019-02-25T13:40:31.372Z,26.49
2019-02-25T13:42:59.547Z,27.46
2019-02-25T13:45:26.970Z,28.25
2019-02-25T13:47:54.422Z,28.19
2019-02-25T13:50:21.854Z,27.68
2019-02-25T13:52:49.414Z,28.11
2019-02-25T13:55:17.612Z,29.27
2019-02-25T13:57:44.575Z,29.67
2019-02-25T14:00:12.468Z,30.39
2019-02-25T14:02:39.875Z,30.53
2019-02-25T14:05:07.309Z,31.18
2019-02-25T14:07:35.787Z,31.94
2019-02-25T14:10:03.188Z,32.46
2019-02-25T14:12:30.660Z,32.85
2019-02-25T14:14:58.092Z,32.82
2019-02-25T14:17:26.411Z,33.26
2019-02-25T14:19:53.081Z,33.60
2019-02-25T14:22:20.505Z,33.91
2019-02-25T14:24:47.910Z,34.08
2019-02-25T14:27:15.544Z,34.64
2019-02-25T14:29:44.643Z,35.12
2019-02-25T14:32:10.976Z,35.48
2019-02-25T14:34:37.831Z,35.78
2019-02-25T14:37:05.262Z,36.01
2019-02-25T14:39:33.393Z,36.30
2019-02-25T14:42:01.744Z,36.26
2019-02-25T14:44:32.359Z,36.47
2019-02-25T14:46:56.576Z,36.65
2019-02-25T14:49:22.640Z,36.87
2019-02-25T14:51:49.659Z,37.15
2019-02-25T14:54:16.638Z,37.21
2019-02-25T14:56:45.024Z,37.06
2019-02-25T14:59:13.234Z,37.30
2019-02-25T15:01:38.051Z,37.84
2019-02-25T15:04:06.473Z,38.09
2019-02-25T15:06:34.266Z,38.34
2019-02-25T15:09:01.781Z,38.81
2019-02-25T15:11:27.965Z,39.16
2019-02-25T15:13:55.439Z,39.44
2019-02-25T15:16:23.054Z,39.45
2019-02-25T15:18:50.076Z,39.35
2019-02-25T15:21:17.579Z,39.44
2019-02-25T15:23:45.126Z,39.48
2019-02-25T15:26:12.095Z,39.53
2019-02-25T15:31:14.083Z,39.28
2019-02-25T15:33:40.873Z,39.13
2019-02-25T15:36:07.109Z,39.16
2019-02-25T15:38:34.910Z,38.86
2019-02-25T15:41:02.225Z,38.31
2019-02-25T15:43:29.983Z,38.21
2019-02-25T15:45:56.654Z,38.31
2019-02-25T15:48:24.128Z,38.32
2019-02-25T15:50:52.958Z,38.58
2019-02-25T15:53:19.983Z,38.50
2019-02-25T15:55:47.378Z,38.02
2019-02-25T15:58:14.787Z,37.39
2019-02-25T16:00:42.235Z,36.94
2019-02-25T16:03:11.254Z,36.68
2019-02-25T16:05:38.722Z,36.39
2019-02-25T16:08:05.636Z,36.09
2019-02-25T16:10:33.070Z,35.66
2019-02-25T16:13:02.234Z,35.72
2019-02-25T16:15:28.101Z,35.59
2019-02-25T16:17:55.532Z,35.31
2019-02-25T16:20:23.162Z,34.81
2019-02-25T16:22:50.590Z,33.46
2019-02-25T16:25:18.153Z,32.48
2019-02-25T16:27:49.752Z,32.37
2019-02-25T16:30:14.163Z,32.29
2019-02-25T16:32:42.199Z,31.90
2019-02-25T16:35:10.098Z,31.44
2019-02-25T16:37:37.704Z,30.69
2019-02-25T16:40:06.526Z,30.23
2019-02-25T16:42:33.175Z,29.40
2019-02-25T16:45:01.355Z,27.76
2019-02-25T16:47:32.860Z,26.63
2019-02-25T16:49:56.399Z,24.53
2019-02-25T16:52:24.372Z,21.68
2019-02-25T16:54:50.167Z,19.90
2019-02-25T16:57:18.513Z,18.63
2019-02-25T16:59:45.157Z,17.82
2019-02-25T17:02:14.191Z,17.17
2019-02-25T17:04:40.399Z,16.63
2019-02-25T17:07:07.875Z,16.19
2019-02-25T17:09:37.053Z,15.83
2019-02-25T17:12:05.129Z,15.65
2019-02-25T17:14:30.630Z,15.42
2019-02-25T17:16:58.116Z,15.26
2019-02-25T17:19:25.539Z,15.09
2019-02-25T17:21:53.066Z,14.92
2019-02-25T17:24:23.704Z,14.77
2019-02-25T17:26:48.006Z,14.63
2019-02-25T17:29:15.434Z,14.49
2019-02-25T17:31:42.855Z,14.44
2019-02-25T17:34:12.083Z,14.34
2019-02-25T17:36:37.798Z,14.31
2019-02-25T17:39:06.949Z,14.12
2019-02-25T17:41:33.626Z,13.83
2019-02-25T17:44:01.482Z,13.61
2019-02-25T17:46:28.848Z,13.53
2019-02-25T17:48:55.727Z,13.59
2019-02-25T17:51:24.809Z,13.53
2019-02-25T17:53:52.177Z,13.26
2019-02-25T17:56:20.227Z,13.04
2019-02-25T17:58:46.739Z,12.97
2019-02-25T18:01:13.447Z,12.90
2019-02-25T18:03:42.236Z,12.89
2019-02-25T18:06:09.142Z,12.79
2019-02-25T18:08:37.263Z,12.77
2019-02-25T18:11:04.003Z,12.82
2019-02-25T18:13:33.010Z,12.89
2019-02-25T18:15:59.547Z,12.88
2019-02-25T18:18:26.959Z,12.88
2019-02-25T18:20:54.433Z,12.94
2019-02-25T18:23:21.875Z,12.92
2019-02-25T18:25:49.432Z,12.88
2019-02-25T18:28:17.831Z,12.89
2019-02-25T18:30:44.566Z,12.84
2019-02-25T18:33:11.985Z,12.70
2019-02-25T18:35:41.220Z,12.53
2019-02-25T18:38:09.298Z,12.34
2019-02-25T18:40:35.852Z,12.18
2019-02-25T18:43:02.360Z,12.00
2019-02-25T18:45:29.263Z,11.89
2019-02-25T18:47:56.666Z,11.89
2019-02-25T18:50:26.298Z,11.86
2019-02-25T18:52:52.853Z,11.82
2019-02-25T18:55:19.828Z,11.84
2019-02-25T18:57:48.202Z,11.87
2019-02-25T19:00:20.059Z,11.90
2019-02-25T19:02:46.509Z,11.82
2019-02-25T19:05:14.172Z,11.77
2019-02-25T19:07:41.671Z,11.77
2019-02-25T19:10:10.606Z,11.77
2019-02-25T19:12:36.596Z,11.75
2019-02-25T19:15:04.921Z,11.79
2019-02-25T19:17:31.997Z,11.67
2019-02-25T19:19:59.092Z,11.59
2019-02-25T19:22:26.494Z,11.54
2019-02-25T19:24:53.902Z,11.39
2019-02-25T19:27:21.307Z,11.26
2019-02-25T19:29:49.420Z,11.23
2019-02-25T19:32:16.155Z,11.24
2019-02-25T19:34:44.339Z,11.08
2019-02-25T19:37:12.639Z,11.06
2019-02-25T19:39:41.116Z,10.93
2019-02-25T19:42:06.941Z,10.83
2019-02-25T19:44:36.007Z,10.78
2019-02-25T19:47:01.795Z,10.74
2019-02-25T19:49:29.466Z,10.74
2019-02-25T19:51:56.884Z,10.82
2019-02-25T19:54:24.292Z,10.80
2019-02-25T19:56:53.745Z,10.79
2019-02-25T19:59:21.205Z,10.79
2019-02-25T20:01:46.575Z,10.68
2019-02-25T20:04:16.358Z,10.46
2019-02-25T20:06:44.402Z,10.36
2019-02-25T20:09:09.199Z,10.19
2019-02-25T20:11:36.656Z,10.05
2019-02-25T20:14:04.232Z,9.91
2019-02-25T20:16:32.289Z,9.84
2019-02-25T20:19:00.301Z,9.80
2019-02-25T20:21:27.231Z,9.88
2019-02-25T20:23:55.897Z,10.02
2019-02-25T20:26:22.430Z,10.05
2019-02-25T20:28:50.536Z,9.94
2019-02-25T20:31:16.803Z,9.89
2019-02-25T20:33:43.969Z,9.89
2019-02-25T20:36:11.654Z,9.79
2019-02-25T20:38:39.767Z,9.72
2019-02-25T20:41:06.489Z,9.57
2019-02-25T20:43:34.445Z,9.43
2019-02-25T20:46:04.021Z,9.42
2019-02-25T20:48:29.281Z,9.43
2019-02-25T20:50:59.640Z,9.51
2019-02-25T20:53:25.065Z,9.55
2019-02-25T20:55:52.527Z,9.55
2019-02-25T20:58:20.778Z,9.58
2019-02-25T21:00:47.064Z,9.48
2019-02-25T21:03:16.018Z,9.33
2019-02-25T21:05:41.305Z,9.13
2019-02-25T21:08:08.721Z,9.16
2019-02-25T21:10:36.184Z,9.23
2019-02-25T21:13:03.716Z,9.29
2019-02-25T21:15:33.367Z,9.26
2019-02-25T21:17:59.981Z,9.25
2019-02-25T21:20:28.668Z,9.02
2019-02-25T21:22:57.414Z,8.87
2019-02-25T21:25:24.458Z,8.93
2019-02-25T21:27:48.312Z,9.05
2019-02-25T21:30:16.508Z,9.10
2019-02-25T21:32:47.132Z,9.15
2019-02-25T21:35:11.448Z,9.19
2019-02-25T21:37:38.910Z,9.24
2019-02-25T21:40:07.407Z,9.19
2019-02-25T21:42:33.825Z,9.20
2019-02-25T21:45:02.377Z,9.22
2019-02-25T21:47:29.278Z,9.22
2019-02-25T21:49:58.842Z,9.14
2019-02-25T21:52:23.499Z,9.11
2019-02-25T21:54:50.894Z,9.06
2019-02-25T21:57:18.359Z,9.02
2019-02-25T21:59:45.774Z,8.99
2019-02-25T22:02:13.207Z,8.99
2019-02-25T22:04:42.595Z,8.98
2019-02-25T22:07:08.202Z,8.91
2019-02-25T22:09:40.569Z,8.80
2019-02-25T22:12:03.104Z,8.57
2019-02-25T22:14:30.527Z,8.47
2019-02-25T22:16:58.850Z,8.26
2019-02-25T22:19:25.542Z,8.23
2019-02-25T22:21:55.663Z,8.18
2019-02-25T22:24:24.766Z,8.03
2019-02-25T22:26:49.460Z,7.93
2019-02-25T22:29:15.311Z,7.91
2019-02-25T22:31:44.327Z,7.89
2019-02-25T22:34:12.820Z,7.92
2019-02-25T22:36:41.584Z,7.97
2019-02-25T22:39:05.532Z,8.15
2019-02-25T22:41:32.548Z,8.18
2019-02-25T22:44:01.956Z,8.24
2019-02-25T22:46:29.971Z,8.19
2019-02-25T22:48:54.899Z,8.09
2019-02-25T22:51:25.986Z,8.02
2019-02-25T22:53:49.804Z,7.97
2019-02-25T22:56:18.351Z,7.84
2019-02-25T22:58:44.799Z,7.75
2019-02-25T23:01:14.881Z,7.75
2019-02-25T23:03:42.944Z,7.65
2019-02-25T23:06:09.260Z,7.53
2019-02-25T23:08:34.628Z,7.41
2019-02-25T23:11:02.008Z,7.46
2019-02-25T23:13:30.321Z,7.60
2019-02-25T23:15:56.872Z,7.70
2019-02-25T23:18:25.892Z,7.76
2019-02-25T23:20:53.135Z,7.83
2019-02-25T23:23:21.300Z,7.80
2019-02-25T23:25:47.404Z,7.74
2019-02-25T23:28:13.974Z,7.77
2019-02-25T23:30:41.393Z,7.76
2019-02-25T23:33:11.794Z,7.62
2019-02-25T23:35:36.300Z,7.56
2019-02-25T23:38:03.809Z,7.68
2019-02-25T23:43:07.101Z,7.72
2019-02-25T23:45:32.461Z,7.63
2019-02-25T23:48:01.835Z,7.55
2019-02-25T23:50:28.005Z,7.44
2019-02-25T23:52:55.002Z,7.38
2019-02-25T23:55:24.991Z,7.36
2019-02-25T23:57:49.798Z,7.37
